Time;durP1;ratioP1;P1;durP2;ratioP2;P2;SDS_P1;SDS_P2;PMS_P1;PMS_P2;Temp;Humidity;BMP_temperature;BMP_pressure;BME280_temperature;BME280_humidity;BME280_pressure;Samples;Min_cycle;Max_cycle;Signal;HPM_P1;HPM_P2
2022/07/17 00:00:58;;;;;;;;;3.00;3.00;;;;;;;;5093716;27;46444;-64
2022/07/17 00:03:23;;;;;;;;;5.00;4.00;;;;;;;;5093848;27;45420;-64
2022/07/17 00:05:48;;;;;;;;;4.75;3.75;;;;;;;;5093896;27;45465;-64
2022/07/17 00:08:14;;;;;;;;;3.00;3.00;;;;;;;;5075576;27;45400;-63
2022/07/17 00:10:40;;;;;;;;;2.00;2.00;;;;;;;;5093703;27;46328;-64
2022/07/17 00:13:06;;;;;;;;;4.00;3.00;;;;;;;;5093659;27;45454;-63
2022/07/17 00:15:31;;;;;;;;;2.00;2.00;;;;;;;;5093719;27;45456;-63
2022/07/17 00:17:56;;;;;;;;;4.50;3.00;;;;;;;;5075227;27;45460;-64
2022/07/17 00:20:24;;;;;;;;;4.00;4.00;;;;;;;;5093226;27;46208;-63
2022/07/17 00:22:50;;;;;;;;;2.50;2.50;;;;;;;;5093434;27;45463;-64
2022/07/17 00:25:15;;;;;;;;;3.00;3.00;;;;;;;;5093532;27;45354;-62
2022/07/17 00:27:40;;;;;;;;;2.00;2.00;;;;;;;;5093523;27;45450;-63
2022/07/17 00:30:07;;;;;;;;;2.00;2.00;;;;;;;;5093344;27;46627;-63
2022/07/17 00:32:32;;;;;;;;;3.00;3.00;;;;;;;;5075035;27;45431;-63
2022/07/17 00:34:57;;;;;;;;;4.00;4.00;;;;;;;;5093217;27;45454;-63
2022/07/17 00:37:23;;;;;;;;;2.25;2.25;;;;;;;;5093303;27;45602;-62
2022/07/17 00:39:48;;;;;;;;;3.50;3.50;;;;;;;;5093120;27;45602;-62
2022/07/17 00:42:14;;;;;;;;;2.00;2.00;;;;;;;;5074759;27;45670;-62
2022/07/17 00:44:40;;;;;;;;;3.25;3.25;;;;;;;;5093153;27;45536;-62
2022/07/17 00:47:18;;;;;;;;;3.00;3.00;;;;;;;;5093176;27;45475;-63
2022/07/17 00:49:43;;;;;;;;;3.25;3.25;;;;;;;;5093095;27;46197;-63
2022/07/17 00:52:10;;;;;;;;;4.25;2.50;;;;;;;;5093015;27;45499;-64
2022/07/17 00:54:36;;;;;;;;;2.75;2.75;;;;;;;;5093112;27;45985;-62
2022/07/17 00:57:03;;;;;;;;;2.00;2.00;;;;;;;;5093081;27;45392;-63
2022/07/17 00:59:30;;;;;;;;;3.50;3.50;;;;;;;;5092810;27;45790;-63
2022/07/17 01:01:56;;;;;;;;;2.00;2.00;;;;;;;;5092981;27;45505;-63
2022/07/17 01:04:21;;;;;;;;;3.75;3.75;;;;;;;;5093297;27;45585;-63
2022/07/17 01:06:46;;;;;;;;;4.00;2.50;;;;;;;;5093264;27;45520;-63
2022/07/17 01:09:11;;;;;;;;;2.50;2.00;;;;;;;;5074554;27;47516;-62
2022/07/17 01:11:37;;;;;;;;;2.50;2.50;;;;;;;;5093252;27;45470;-62
2022/07/17 01:14:02;;;;;;;;;3.25;3.25;;;;;;;;5093384;27;45497;-62
2022/07/17 01:16:28;;;;;;;;;2.00;2.00;;;;;;;;5093426;27;45614;-62
2022/07/17 01:18:53;;;;;;;;;4.00;3.00;;;;;;;;5093067;27;46654;-62
2022/07/17 01:21:19;;;;;;;;;3.00;3.00;;;;;;;;5092576;27;45450;-62
2022/07/17 01:23:44;;;;;;;;;3.00;3.00;;;;;;;;5093355;27;45590;-62
2022/07/17 01:26:09;;;;;;;;;3.00;3.00;;;;;;;;5074729;27;45440;-62
2022/07/17 01:28:35;;;;;;;;;3.50;1.25;;;;;;;;5093084;27;46440;-63
2022/07/17 01:31:01;;;;;;;;;3.50;3.50;;;;;;;;5093252;27;46089;-63
2022/07/17 01:33:26;;;;;;;;;2.75;2.75;;;;;;;;5093299;27;45630;-62
2022/07/17 01:35:52;;;;;;;;;2.50;2.00;;;;;;;;5093200;27;45392;-62
2022/07/17 01:38:17;;;;;;;;;4.00;3.00;;;;;;;;5092969;27;46319;-62
2022/07/17 01:40:42;;;;;;;;;2.75;2.75;;;;;;;;5093081;27;45380;-62
2022/07/17 01:43:07;;;;;;;;;3.00;3.00;;;;;;;;5093135;27;45982;-62
2022/07/17 01:45:33;;;;;;;;;2.25;2.25;;;;;;;;5092892;27;45431;-63
2022/07/17 01:47:58;;;;;;;;;2.75;2.75;;;;;;;;5092840;27;45655;-63
2022/07/17 01:50:23;;;;;;;;;3.00;1.00;;;;;;;;5074418;27;45404;-62
2022/07/17 01:52:48;;;;;;;;;3.00;3.00;;;;;;;;5092923;27;45932;-63
2022/07/17 01:55:15;;;;;;;;;3.00;3.00;;;;;;;;5092968;27;45756;-62
2022/07/17 01:57:40;;;;;;;;;3.00;3.00;;;;;;;;5092485;27;45487;-62
2022/07/17 02:00:08;;;;;;;;;3.25;3.00;;;;;;;;5074082;27;45428;-62
2022/07/17 02:02:33;;;;;;;;;3.00;3.00;;;;;;;;5092601;27;45527;-62
2022/07/17 02:04:58;;;;;;;;;3.50;2.25;;;;;;;;5092380;27;45918;-62
2022/07/17 02:07:24;;;;;;;;;2.00;2.00;;;;;;;;5092397;27;45666;-63
2022/07/17 02:09:49;;;;;;;;;3.00;3.00;;;;;;;;5092380;27;45476;-63
2022/07/17 02:12:15;;;;;;;;;2.00;2.00;;;;;;;;5092579;27;45416;-63
2022/07/17 02:14:40;;;;;;;;;4.00;2.00;;;;;;;;5073946;27;45864;-63
2022/07/17 02:17:05;;;;;;;;;3.25;3.25;;;;;;;;5092351;27;46043;-63
2022/07/17 02:19:31;;;;;;;;;2.25;2.25;;;;;;;;5092144;27;45356;-62
2022/07/17 02:21:56;;;;;;;;;3.00;3.00;;;;;;;;5092433;27;45718;-63
2022/07/17 02:24:21;;;;;;;;;2.50;1.50;;;;;;;;5092607;27;45664;-62
2022/07/17 02:26:46;;;;;;;;;2.00;2.00;;;;;;;;5092210;27;46318;-63
2022/07/17 02:29:12;;;;;;;;;3.00;3.00;;;;;;;;5092214;27;45439;-62
2022/07/17 02:31:37;;;;;;;;;2.25;2.25;;;;;;;;5092306;27;45462;-63
2022/07/17 02:34:02;;;;;;;;;3.50;3.00;;;;;;;;5095685;27;45333;-63
2022/07/17 02:36:27;;;;;;;;;3.00;3.00;;;;;;;;5095623;27;45590;-62
2022/07/17 02:38:53;;;;;;;;;3.25;3.00;;;;;;;;5095801;27;46259;-62
2022/07/17 02:41:18;;;;;;;;;4.75;3.75;;;;;;;;5095569;27;45391;-64
2022/07/17 02:43:43;;;;;;;;;4.00;4.00;;;;;;;;5077082;27;45404;-63
2022/07/17 02:46:08;;;;;;;;;4.75;4.00;;;;;;;;5095297;27;46609;-63
2022/07/17 02:48:34;;;;;;;;;6.50;5.25;;;;;;;;5095489;27;45392;-64
2022/07/17 02:50:59;;;;;;;;;4.00;4.00;;;;;;;;5095649;27;45907;-63
2022/07/17 02:53:24;;;;;;;;;5.00;4.25;;;;;;;;5076906;27;45437;-63
2022/07/17 02:55:49;;;;;;;;;5.25;5.25;;;;;;;;5095108;27;45632;-63
2022/07/17 02:58:14;;;;;;;;;4.00;4.00;;;;;;;;5076714;27;45587;-63
2022/07/17 03:00:40;;;;;;;;;5.75;4.25;;;;;;;;5095200;27;45499;-62
2022/07/17 03:03:05;;;;;;;;;4.00;4.00;;;;;;;;5095257;27;45373;-62
2022/07/17 03:05:30;;;;;;;;;6.00;6.00;;;;;;;;5076568;27;48740;-62
2022/07/17 03:07:55;;;;;;;;;6.50;6.50;;;;;;;;5076563;27;45532;-63
2022/07/17 03:10:21;;;;;;;;;8.75;8.75;;;;;;;;5095042;27;45513;-64
2022/07/17 03:12:46;;;;;;;;;7.25;7.25;;;;;;;;5095211;27;45351;-63
2022/07/17 03:15:11;;;;;;;;;9.25;9.25;;;;;;;;5076448;27;48055;-63
2022/07/17 03:17:39;;;;;;;;;11.00;11.00;;;;;;;;5094937;27;45412;-63
2022/07/17 03:20:05;;;;;;;;;11.50;11.50;;;;;;;;5076490;27;45420;-61
2022/07/17 03:22:30;;;;;;;;;12.25;11.75;;;;;;;;5094613;27;45349;-62
2022/07/17 03:24:56;;;;;;;;;16.25;16.25;;;;;;;;5094663;27;46801;-62
2022/07/17 03:27:21;;;;;;;;;16.25;15.50;;;;;;;;5094780;27;45425;-62
2022/07/17 03:29:46;;;;;;;;;21.00;16.00;;;;;;;;5094820;27;45616;-63
2022/07/17 03:32:11;;;;;;;;;19.50;17.75;;;;;;;;5076394;27;45969;-62
2022/07/17 03:34:37;;;;;;;;;24.75;21.75;;;;;;;;5094424;27;46595;-62
2022/07/17 03:37:03;;;;;;;;;21.00;20.75;;;;;;;;5094238;27;45359;-62
2022/07/17 03:39:28;;;;;;;;;20.25;18.50;;;;;;;;5094562;27;45464;-61
2022/07/17 03:41:54;;;;;;;;;19.50;19.50;;;;;;;;5094516;27;45540;-62
2022/07/17 03:44:19;;;;;;;;;17.50;16.25;;;;;;;;5094053;27;46505;-62
2022/07/17 03:46:44;;;;;;;;;17.75;15.25;;;;;;;;5094438;27;45970;-63
2022/07/17 03:49:10;;;;;;;;;18.75;14.50;;;;;;;;5094567;27;45520;-63
2022/07/17 03:51:35;;;;;;;;;20.00;18.50;;;;;;;;5094399;27;45483;-63
2022/07/17 03:54:00;;;;;;;;;13.50;12.00;;;;;;;;5094354;27;45582;-62
2022/07/17 03:56:25;;;;;;;;;18.00;16.75;;;;;;;;5094253;27;45570;-64
2022/07/17 03:58:51;;;;;;;;;13.50;12.25;;;;;;;;5094394;27;45446;-63
2022/07/17 04:01:16;;;;;;;;;13.75;12.25;;;;;;;;5094329;27;45533;-63
2022/07/17 04:03:41;;;;;;;;;10.00;10.00;;;;;;;;5094036;27;45450;-63
2022/07/17 04:06:06;;;;;;;;;9.75;9.25;;;;;;;;5094126;27;45567;-63
2022/07/17 04:08:32;;;;;;;;;12.00;12.00;;;;;;;;5094076;27;45400;-63
2022/07/17 04:10:57;;;;;;;;;8.25;8.25;;;;;;;;5094232;27;45470;-63
2022/07/17 04:13:22;;;;;;;;;8.00;8.00;;;;;;;;5094148;27;45753;-63
2022/07/17 04:15:55;;;;;;;;;6.75;6.75;;;;;;;;5094298;27;46227;-63
2022/07/17 04:18:24;;;;;;;;;7.00;6.00;;;;;;;;5094078;27;45546;-64
2022/07/17 04:20:50;;;;;;;;;5.00;5.00;;;;;;;;5093609;27;45618;-63
2022/07/17 04:23:15;;;;;;;;;4.00;4.00;;;;;;;;5093675;27;45427;-63
2022/07/17 04:25:40;;;;;;;;;6.00;6.00;;;;;;;;5093961;27;45494;-63
2022/07/17 04:28:06;;;;;;;;;2.75;2.75;;;;;;;;5075573;27;46015;-63
2022/07/17 04:30:31;;;;;;;;;3.00;3.00;;;;;;;;5093892;27;45478;-63
2022/07/17 04:32:56;;;;;;;;;4.00;4.00;;;;;;;;5093615;27;46366;-64
2022/07/17 04:35:21;;;;;;;;;3.50;3.50;;;;;;;;5075202;27;45408;-63
2022/07/17 04:37:47;;;;;;;;;1.50;1.50;;;;;;;;5093652;27;45787;-64
2022/07/17 04:40:12;;;;;;;;;3.00;3.00;;;;;;;;5093674;27;45467;-63
2022/07/17 04:42:37;;;;;;;;;3.00;3.00;;;;;;;;5093638;27;45428;-63
2022/07/17 04:45:03;;;;;;;;;2.00;2.00;;;;;;;;5093457;27;45416;-63
2022/07/17 04:47:28;;;;;;;;;3.00;2.00;;;;;;;;5093714;27;45380;-63
2022/07/17 04:49:53;;;;;;;;;5.00;3.00;;;;;;;;5093633;27;45617;-64
2022/07/17 04:52:18;;;;;;;;;1.50;1.50;;;;;;;;5093609;27;46063;-63
2022/07/17 04:54:44;;;;;;;;;3.00;3.00;;;;;;;;5074169;27;46268;-63
2022/07/17 04:57:09;;;;;;;;;3.00;2.00;;;;;;;;5093479;27;45392;-63
2022/07/17 04:59:36;;;;;;;;;4.00;3.00;;;;;;;;5093482;27;45602;-63
2022/07/17 05:02:02;;;;;;;;;1.50;1.50;;;;;;;;5093136;27;45499;-63
2022/07/17 05:04:27;;;;;;;;;4.50;3.00;;;;;;;;5093191;27;45717;-63
2022/07/17 05:06:52;;;;;;;;;2.00;2.00;;;;;;;;5093688;27;45478;-63
2022/07/17 05:09:17;;;;;;;;;3.00;2.00;;;;;;;;5093827;27;45656;-63
2022/07/17 05:11:43;;;;;;;;;2.50;2.50;;;;;;;;5074781;27;46326;-63
2022/07/17 05:14:08;;;;;;;;;0.00;0.00;;;;;;;;5093253;27;45524;-62
2022/07/17 05:16:33;;;;;;;;;3.25;2.00;;;;;;;;5093255;27;45643;-62
2022/07/17 05:18:58;;;;;;;;;2.00;2.00;;;;;;;;5093326;27;45842;-63
2022/07/17 05:21:23;;;;;;;;;1.75;1.75;;;;;;;;5092738;27;45629;-62
2022/07/17 05:23:48;;;;;;;;;2.25;2.25;;;;;;;;5093037;27;45493;-62
2022/07/17 05:26:14;;;;;;;;;5.00;4.00;;;;;;;;5093226;27;45404;-63
2022/07/17 05:28:39;;;;;;;;;2.75;2.75;;;;;;;;5093307;27;45435;-62
2022/07/17 05:31:04;;;;;;;;;2.00;2.00;;;;;;;;5092721;27;46653;-61
2022/07/17 05:33:30;;;;;;;;;2.00;2.00;;;;;;;;5092848;27;45786;-62
2022/07/17 05:35:55;;;;;;;;;2.50;2.50;;;;;;;;5092814;27;45444;-63
2022/07/17 05:38:20;;;;;;;;;2.00;2.00;;;;;;;;5074124;27;45540;-63
2022/07/17 05:40:45;;;;;;;;;2.00;2.00;;;;;;;;5092563;27;46494;-62
2022/07/17 05:43:11;;;;;;;;;2.00;1.00;;;;;;;;5092652;27;45423;-63
2022/07/17 05:45:36;;;;;;;;;2.00;2.00;;;;;;;;5092936;27;45497;-63
2022/07/17 05:48:01;;;;;;;;;3.00;3.00;;;;;;;;5092977;27;45381;-63
2022/07/17 05:50:26;;;;;;;;;5.50;3.25;;;;;;;;5092402;27;45569;-63
2022/07/17 05:52:52;;;;;;;;;2.75;2.75;;;;;;;;5074033;27;45413;-62
2022/07/17 05:55:17;;;;;;;;;3.00;3.00;;;;;;;;5092902;27;45423;-63
2022/07/17 05:57:42;;;;;;;;;2.00;2.00;;;;;;;;5092723;27;45380;-63
2022/07/17 06:00:08;;;;;;;;;3.75;3.00;;;;;;;;5092503;27;45392;-63
2022/07/17 06:02:33;;;;;;;;;3.00;3.00;;;;;;;;5092348;27;45478;-62
2022/07/17 06:04:58;;;;;;;;;2.75;2.75;;;;;;;;5092638;27;45877;-62
2022/07/17 06:07:23;;;;;;;;;2.75;2.75;;;;;;;;5076972;27;45465;-63
2022/07/17 06:09:48;;;;;;;;;2.50;2.50;;;;;;;;5077503;27;47297;-62
2022/07/17 06:12:13;;;;;;;;;5.00;3.50;;;;;;;;5096003;27;45431;-62
2022/07/17 06:14:39;;;;;;;;;4.50;3.50;;;;;;;;5077833;27;45479;-62
2022/07/17 06:17:04;;;;;;;;;3.50;2.25;;;;;;;;5096219;27;45604;-62
2022/07/17 06:19:29;;;;;;;;;3.00;3.00;;;;;;;;5077266;27;47820;-63
2022/07/17 06:21:54;;;;;;;;;3.50;3.50;;;;;;;;5096149;27;45721;-62
2022/07/17 06:24:19;;;;;;;;;3.50;3.50;;;;;;;;5096194;27;45735;-62
2022/07/17 06:26:45;;;;;;;;;1.50;1.50;;;;;;;;5096035;27;45448;-62
2022/07/17 06:29:10;;;;;;;;;4.50;3.00;;;;;;;;5095704;27;45984;-63
2022/07/17 06:31:35;;;;;;;;;3.75;3.75;;;;;;;;5095779;27;45445;-63
2022/07/17 06:34:00;;;;;;;;;3.50;3.50;;;;;;;;5095880;27;45463;-63
2022/07/17 06:36:25;;;;;;;;;4.00;3.75;;;;;;;;5095460;27;45427;-64
2022/07/17 06:38:51;;;;;;;;;3.00;3.00;;;;;;;;5095595;27;45406;-63
2022/07/17 06:41:16;;;;;;;;;3.50;3.00;;;;;;;;5077204;27;45429;-63
2022/07/17 06:43:42;;;;;;;;;3.75;3.75;;;;;;;;5095441;27;46220;-62
2022/07/17 06:46:08;;;;;;;;;3.50;3.50;;;;;;;;5076939;27;45391;-62
2022/07/17 06:48:33;;;;;;;;;3.25;3.25;;;;;;;;5095746;27;46584;-62
2022/07/17 06:50:58;;;;;;;;;5.25;4.50;;;;;;;;5095905;27;45468;-63
2022/07/17 06:53:23;;;;;;;;;2.00;2.00;;;;;;;;5077546;27;45428;-62
2022/07/17 06:55:48;;;;;;;;;4.00;4.00;;;;;;;;5077178;27;45464;-63
2022/07/17 06:58:14;;;;;;;;;4.50;4.50;;;;;;;;5095586;27;46639;-63
2022/07/17 07:00:39;;;;;;;;;2.50;2.00;;;;;;;;5095543;27;45404;-63
2022/07/17 07:03:04;;;;;;;;;2.00;2.00;;;;;;;;5095598;27;45462;-62
2022/07/17 07:05:29;;;;;;;;;5.00;4.00;;;;;;;;5095663;27;45366;-63
2022/07/17 07:07:55;;;;;;;;;2.75;2.75;;;;;;;;5095579;27;45807;-62
2022/07/17 07:10:20;;;;;;;;;2.75;2.75;;;;;;;;5076958;27;45385;-61
2022/07/17 07:12:45;;;;;;;;;1.75;1.75;;;;;;;;5095537;27;45442;-63
2022/07/17 07:15:10;;;;;;;;;11.00;9.00;;;;;;;;5095443;27;45444;-62
2022/07/17 07:17:36;;;;;;;;;24.75;21.75;;;;;;;;5094408;27;46644;-63
2022/07/17 07:20:03;;;;;;;;;18.75;18.75;;;;;;;;5095200;27;45409;-62
2022/07/17 07:22:29;;;;;;;;;10.50;9.50;;;;;;;;5095468;27;45621;-62
2022/07/17 07:24:54;;;;;;;;;8.25;6.75;;;;;;;;5095252;27;45936;-63
2022/07/17 07:27:19;;;;;;;;;7.25;7.25;;;;;;;;5095084;27;46350;-63
2022/07/17 07:29:44;;;;;;;;;3.50;3.50;;;;;;;;5095084;27;45475;-62
2022/07/17 07:32:09;;;;;;;;;4.00;4.00;;;;;;;;5095277;27;45540;-63
2022/07/17 07:34:35;;;;;;;;;1.25;1.25;;;;;;;;5095102;27;45476;-62
2022/07/17 07:37:00;;;;;;;;;3.00;3.00;;;;;;;;5059403;27;47548;-63
2022/07/17 07:39:25;;;;;;;;;4.25;2.75;;;;;;;;5094979;27;45459;-63
2022/07/17 07:41:51;;;;;;;;;3.00;3.00;;;;;;;;5095032;27;45360;-63
2022/07/17 07:44:16;;;;;;;;;5.00;3.00;;;;;;;;5094843;27;45420;-63
2022/07/17 07:46:41;;;;;;;;;3.00;3.00;;;;;;;;5094729;27;45612;-63
2022/07/17 07:49:06;;;;;;;;;2.25;2.25;;;;;;;;5094742;27;45636;-63
2022/07/17 07:51:31;;;;;;;;;5.75;3.75;;;;;;;;5094898;27;45416;-63
2022/07/17 07:53:57;;;;;;;;;2.00;2.00;;;;;;;;5076492;27;45464;-63
2022/07/17 07:56:22;;;;;;;;;3.00;3.00;;;;;;;;5075989;27;46464;-63
2022/07/17 07:58:47;;;;;;;;;3.25;3.25;;;;;;;;5076048;27;45468;-63
2022/07/17 08:01:12;;;;;;;;;3.00;3.00;;;;;;;;5094683;27;45467;-62
2022/07/17 08:03:38;;;;;;;;;2.00;2.00;;;;;;;;5094741;27;45336;-63
2022/07/17 08:06:03;;;;;;;;;3.00;3.00;;;;;;;;5094472;27;45736;-62
2022/07/17 08:08:28;;;;;;;;;3.00;3.00;;;;;;;;5094566;27;45633;-63
2022/07/17 08:10:53;;;;;;;;;1.50;1.50;;;;;;;;5094527;27;45401;-63
2022/07/17 08:13:19;;;;;;;;;3.00;3.00;;;;;;;;5094479;27;45382;-63
2022/07/17 08:15:44;;;;;;;;;3.25;3.00;;;;;;;;5075737;27;47441;-63
2022/07/17 08:18:09;;;;;;;;;3.00;3.00;;;;;;;;5094395;27;45388;-64
2022/07/17 08:20:34;;;;;;;;;2.25;2.00;;;;;;;;5094482;27;45456;-63
2022/07/17 08:23:00;;;;;;;;;3.00;2.00;;;;;;;;5094396;27;45790;-62
2022/07/17 08:25:25;;;;;;;;;3.00;2.75;;;;;;;;5075864;27;46401;-63
2022/07/17 08:27:51;;;;;;;;;2.25;2.00;;;;;;;;5094269;27;45376;-63
2022/07/17 08:30:16;;;;;;;;;1.50;1.50;;;;;;;;5092935;27;45455;-64
2022/07/17 08:32:42;;;;;;;;;4.75;3.00;;;;;;;;5075831;27;45533;-64
2022/07/17 08:35:07;;;;;;;;;3.75;2.00;;;;;;;;5075442;27;48029;-64
2022/07/17 08:38:02;;;;;;;;;2.25;2.25;;;;;;;;5093825;27;45400;-64
2022/07/17 08:40:29;;;;;;;;;3.25;3.00;;;;;;;;5030500;28;45519;-64
2022/07/17 08:42:55;;;;;;;;;2.25;1.50;;;;;;;;5030625;28;45488;-64
2022/07/17 08:45:20;;;;;;;;;3.25;3.25;;;;;;;;5030457;28;45679;-63
2022/07/17 08:47:46;;;;;;;;;2.75;1.75;;;;;;;;5030451;28;45446;-62
2022/07/17 08:50:11;;;;;;;;;2.25;2.25;;;;;;;;5013848;28;45513;-63
2022/07/17 08:52:38;;;;;;;;;2.75;2.75;;;;;;;;5030809;28;45367;-63
2022/07/17 08:55:03;;;;;;;;;3.00;2.00;;;;;;;;5013728;28;47481;-63
2022/07/17 08:57:28;;;;;;;;;2.25;2.25;;;;;;;;5030249;28;45442;-63
2022/07/17 08:59:54;;;;;;;;;4.50;3.25;;;;;;;;5030568;28;45453;-63
2022/07/17 09:02:19;;;;;;;;;3.00;2.00;;;;;;;;5030264;28;45399;-63
2022/07/17 09:04:52;;;;;;;;;1.50;1.50;;;;;;;;5030178;28;45718;-63
2022/07/17 09:07:17;;;;;;;;;2.00;2.00;;;;;;;;5029990;28;45543;-62
2022/07/17 09:09:48;;;;;;;;;3.00;3.00;;;;;;;;5029940;28;46141;-62
2022/07/17 09:12:14;;;;;;;;;2.00;2.00;;;;;;;;5029942;28;45511;-63
2022/07/17 09:14:41;;;;;;;;;2.25;2.25;;;;;;;;5029636;28;45840;-63
2022/07/17 09:17:07;;;;;;;;;2.25;2.25;;;;;;;;5067476;27;45543;-63
2022/07/17 09:19:34;;;;;;;;;2.25;2.25;;;;;;;;5093045;27;45406;-63
2022/07/17 09:22:03;;;;;;;;;3.75;3.00;;;;;;;;5093287;27;45738;-63
2022/07/17 09:24:37;;;;;;;;;3.50;3.50;;;;;;;;5092821;27;45758;-62
2022/07/17 09:27:02;;;;;;;;;2.00;2.00;;;;;;;;5092970;27;45562;-62
2022/07/17 09:29:27;;;;;;;;;2.00;2.00;;;;;;;;5093234;27;45387;-63
2022/07/17 09:31:52;;;;;;;;;3.25;2.00;;;;;;;;5093140;27;45447;-62
2022/07/17 09:34:18;;;;;;;;;1.00;1.00;;;;;;;;5092911;27;45672;-63
2022/07/17 09:36:43;;;;;;;;;1.25;1.25;;;;;;;;5092751;27;45498;-63
2022/07/17 09:39:08;;;;;;;;;4.25;4.00;;;;;;;;5093004;27;45436;-63
2022/07/17 09:41:33;;;;;;;;;2.00;2.00;;;;;;;;5092487;27;45368;-64
2022/07/17 09:44:00;;;;;;;;;1.25;1.25;;;;;;;;5092887;27;45677;-64
2022/07/17 09:46:27;;;;;;;;;1.50;1.50;;;;;;;;5074277;27;45490;-63
2022/07/17 09:48:53;;;;;;;;;2.75;1.50;;;;;;;;5092957;27;45568;-63
2022/07/17 09:51:23;;;;;;;;;2.00;2.00;;;;;;;;5074232;27;45535;-63
2022/07/17 09:53:49;;;;;;;;;3.50;2.00;;;;;;;;5092593;27;45760;-63
2022/07/17 09:56:16;;;;;;;;;3.50;2.50;;;;;;;;5092721;27;45499;-63
2022/07/17 09:58:42;;;;;;;;;1.00;1.00;;;;;;;;5074280;27;45440;-62
2022/07/17 10:01:08;;;;;;;;;1.00;1.00;;;;;;;;5092325;27;45529;-63
2022/07/17 10:03:34;;;;;;;;;1.00;1.00;;;;;;;;5092441;27;46056;-63
2022/07/17 10:06:01;;;;;;;;;0.75;0.75;;;;;;;;5092595;27;45503;-64
2022/07/17 10:08:26;;;;;;;;;4.00;3.00;;;;;;;;5073961;27;45445;-64
2022/07/17 10:10:52;;;;;;;;;1.25;1.25;;;;;;;;5092312;27;45441;-63
2022/07/17 10:13:17;;;;;;;;;1.00;1.00;;;;;;;;5092246;27;46484;-63
2022/07/17 10:15:42;;;;;;;;;1.25;1.25;;;;;;;;5074006;27;45419;-63
2022/07/17 10:18:08;;;;;;;;;2.50;2.25;;;;;;;;5074193;27;45673;-63
2022/07/17 10:20:33;;;;;;;;;1.00;1.00;;;;;;;;5073770;27;45477;-62
2022/07/17 10:22:58;;;;;;;;;1.75;1.75;;;;;;;;5092236;27;46410;-64
2022/07/17 10:25:23;;;;;;;;;1.75;1.75;;;;;;;;5092445;27;45368;-62
2022/07/17 10:27:50;;;;;;;;;2.00;2.00;;;;;;;;5092317;27;45499;-61
2022/07/17 10:30:27;;;;;;;;;1.00;1.00;;;;;;;;5092456;27;45456;-63
2022/07/17 10:32:53;;;;;;;;;3.00;3.00;;;;;;;;5092124;27;45424;-63
2022/07/17 10:35:19;;;;;;;;;3.25;2.25;;;;;;;;5073422;27;45453;-63
2022/07/17 10:37:44;;;;;;;;;1.00;1.00;;;;;;;;5073687;27;45574;-63
2022/07/17 10:40:15;;;;;;;;;0.75;0.75;;;;;;;;5092273;27;45482;-63
2022/07/17 10:42:40;;;;;;;;;1.75;1.75;;;;;;;;5092238;27;45927;-62
2022/07/17 10:45:09;;;;;;;;;1.50;1.50;;;;;;;;5091984;27;45553;-62
2022/07/17 10:47:43;;;;;;;;;0.75;0.75;;;;;;;;5092215;27;45407;-62
2022/07/17 10:50:08;;;;;;;;;1.50;1.50;;;;;;;;5091960;27;45381;-63
2022/07/17 10:52:33;;;;;;;;;0.75;0.75;;;;;;;;5092296;27;45659;-62
2022/07/17 10:54:59;;;;;;;;;0.75;0.75;;;;;;;;5077203;27;46223;-63
2022/07/17 10:57:24;;;;;;;;;0.00;0.00;;;;;;;;5095729;27;45438;-62
2022/07/17 10:59:50;;;;;;;;;0.00;0.00;;;;;;;;5095573;27;45574;-62
2022/07/17 11:02:15;;;;;;;;;1.00;1.00;;;;;;;;5095415;27;46612;-63
2022/07/17 11:04:41;;;;;;;;;2.75;2.75;;;;;;;;5095438;27;45447;-63
2022/07/17 11:07:06;;;;;;;;;1.75;1.75;;;;;;;;5095572;27;45449;-63
2022/07/17 11:09:31;;;;;;;;;1.75;1.75;;;;;;;;5076879;27;45482;-62
2022/07/17 11:11:57;;;;;;;;;1.50;1.50;;;;;;;;5076831;27;46804;-62
2022/07/17 11:14:23;;;;;;;;;2.00;2.00;;;;;;;;5095258;27;45549;-63
2022/07/17 11:16:51;;;;;;;;;1.75;1.00;;;;;;;;5095367;27;45404;-63
2022/07/17 11:19:24;;;;;;;;;5.75;5.75;;;;;;;;5095393;27;45472;-62
2022/07/17 11:21:50;;;;;;;;;3.00;3.00;;;;;;;;5094976;27;45481;-63
2022/07/17 11:24:15;;;;;;;;;2.50;2.50;;;;;;;;5095026;27;45399;-62
2022/07/17 11:26:42;;;;;;;;;0.00;0.00;;;;;;;;5095356;27;45385;-63
2022/07/17 11:29:07;;;;;;;;;4.50;4.50;;;;;;;;5076716;27;46067;-62
2022/07/17 11:31:32;;;;;;;;;1.25;1.25;;;;;;;;5076284;27;47321;-62
2022/07/17 11:33:57;;;;;;;;;3.50;3.50;;;;;;;;5076365;27;45552;-63
2022/07/17 11:36:27;;;;;;;;;21.20;19.60;;;;;;;;5076424;27;45436;-62
2022/07/17 11:38:53;;;;;;;;;6.25;6.25;;;;;;;;5094788;27;45384;-62
2022/07/17 11:41:19;;;;;;;;;6.50;5.00;;;;;;;;5094242;27;45828;-63
2022/07/17 11:43:45;;;;;;;;;2.00;2.00;;;;;;;;5094303;27;45388;-63
2022/07/17 11:46:10;;;;;;;;;2.00;2.00;;;;;;;;5076471;27;45454;-64
2022/07/17 11:48:35;;;;;;;;;1.00;1.00;;;;;;;;5094897;27;45787;-62
2022/07/17 11:51:01;;;;;;;;;2.75;1.75;;;;;;;;5094484;27;45731;-62
2022/07/17 11:53:36;;;;;;;;;2.25;2.25;;;;;;;;5094549;27;45456;-63
2022/07/17 11:56:02;;;;;;;;;3.00;3.00;;;;;;;;5094644;27;45431;-62
2022/07/17 11:58:27;;;;;;;;;3.00;3.00;;;;;;;;5075995;27;45984;-62
2022/07/17 12:01:00;;;;;;;;;1.25;1.25;;;;;;;;5094140;27;45575;-62
2022/07/17 12:03:25;;;;;;;;;3.00;3.00;;;;;;;;5094358;27;45438;-62
2022/07/17 12:05:50;;;;;;;;;2.00;2.00;;;;;;;;5075924;27;45408;-63
2022/07/17 12:08:21;;;;;;;;;2.50;2.50;;;;;;;;5094517;27;45512;-62
2022/07/17 12:10:47;;;;;;;;;1.75;1.75;;;;;;;;5094154;27;46340;-62
2022/07/17 12:13:13;;;;;;;;;4.00;4.00;;;;;;;;5094103;27;45475;-62
2022/07/17 12:15:38;;;;;;;;;2.25;2.25;;;;;;;;5094473;27;45401;-62
2022/07/17 12:18:04;;;;;;;;;2.75;2.75;;;;;;;;5094604;27;45425;-63
2022/07/17 12:20:40;;;;;;;;;2.25;2.25;;;;;;;;5075546;27;46865;-62
2022/07/17 12:23:05;;;;;;;;;2.00;2.00;;;;;;;;5094099;27;45467;-62
2022/07/17 12:25:30;;;;;;;;;1.75;1.50;;;;;;;;5093948;27;45411;-64
2022/07/17 12:27:55;;;;;;;;;2.25;2.25;;;;;;;;5094083;27;45358;-60
2022/07/17 12:30:21;;;;;;;;;1.50;1.50;;;;;;;;5093848;27;46140;-62
2022/07/17 12:32:47;;;;;;;;;2.00;2.00;;;;;;;;5093922;27;45501;-64
2022/07/17 12:35:12;;;;;;;;;1.00;1.00;;;;;;;;5094088;27;45543;-64
2022/07/17 12:37:38;;;;;;;;;7.00;7.00;;;;;;;;5075220;27;45571;-64
2022/07/17 12:40:04;;;;;;;;;2.00;2.00;;;;;;;;5093804;27;46559;-63
2022/07/17 12:42:29;;;;;;;;;5.25;5.25;;;;;;;;5093648;27;45370;-65
2022/07/17 12:44:54;;;;;;;;;7.75;7.75;;;;;;;;5093907;27;45447;-64
2022/07/17 12:47:19;;;;;;;;;5.00;5.00;;;;;;;;5075362;27;45496;-64
2022/07/17 12:49:44;;;;;;;;;1.25;1.25;;;;;;;;5075215;27;46324;-67
2022/07/17 12:52:10;;;;;;;;;1.50;1.50;;;;;;;;5093799;27;45421;-67
2022/07/17 12:54:35;;;;;;;;;2.00;2.00;;;;;;;;5075282;27;45341;-68
2022/07/17 12:57:00;;;;;;;;;1.00;1.00;;;;;;;;5093724;27;45422;-68
2022/07/17 12:59:25;;;;;;;;;2.00;2.00;;;;;;;;5093350;27;46037;-64
2022/07/17 13:01:51;;;;;;;;;3.00;2.00;;;;;;;;5093546;27;45597;-66
2022/07/17 13:04:16;;;;;;;;;3.25;3.25;;;;;;;;5067916;27;45371;-67
2022/07/17 13:06:41;;;;;;;;;13.25;12.50;;;;;;;;5093116;27;45608;-66
2022/07/17 13:09:07;;;;;;;;;78.67;74.67;;;;;;;;5074582;27;46507;-67
2022/07/17 13:11:32;;;;;;;;;5.75;5.25;;;;;;;;5093023;27;46016;-67
2022/07/17 13:13:58;;;;;;;;;1.25;1.25;;;;;;;;5093196;27;45390;-67
2022/07/17 13:16:24;;;;;;;;;2.00;2.00;;;;;;;;5085790;27;45429;-67
2022/07/17 13:18:49;;;;;;;;;2.00;2.00;;;;;;;;5074105;27;45598;-68
2022/07/17 13:21:14;;;;;;;;;2.25;2.25;;;;;;;;5072782;28;45815;-68
2022/07/17 13:23:40;;;;;;;;;3.00;3.00;;;;;;;;5071301;28;45439;-66
2022/07/17 13:26:05;;;;;;;;;2.00;2.00;;;;;;;;5074138;27;45565;-69
2022/07/17 13:28:31;;;;;;;;;1.25;1.25;;;;;;;;5068171;28;48742;-69
2022/07/17 13:30:56;;;;;;;;;4.00;1.50;;;;;;;;5088488;27;45408;-65
2022/07/17 13:33:22;;;;;;;;;1.25;1.25;;;;;;;;5093030;27;45483;-64
2022/07/17 13:35:47;;;;;;;;;5.25;1.75;;;;;;;;5092907;27;45509;-65
2022/07/17 13:38:13;;;;;;;;;1.50;1.50;;;;;;;;5086180;27;46073;-65
2022/07/17 13:40:38;;;;;;;;;3.00;2.00;;;;;;;;5076397;27;45511;-66
2022/07/17 13:43:04;;;;;;;;;2.00;2.00;;;;;;;;5074446;27;45573;-65
2022/07/17 13:45:29;;;;;;;;;1.00;1.00;;;;;;;;5092768;27;45392;-67
2022/07/17 13:47:54;;;;;;;;;5.75;5.75;;;;;;;;5092601;27;45677;-65
2022/07/17 13:50:20;;;;;;;;;1.25;1.25;;;;;;;;5086143;27;45519;-65
2022/07/17 13:52:46;;;;;;;;;1.75;1.75;;;;;;;;5071730;27;45655;-65
2022/07/17 13:55:11;;;;;;;;;5.50;4.50;;;;;;;;5080808;27;45577;-67
2022/07/17 13:57:36;;;;;;;;;2.25;2.25;;;;;;;;5090007;27;45867;-70
2022/07/17 14:00:02;;;;;;;;;2.00;2.00;;;;;;;;5084637;27;45495;-68
2022/07/17 14:02:28;;;;;;;;;0.75;0.75;;;;;;;;5078637;27;45645;-67
2022/07/17 14:04:54;;;;;;;;;1.00;1.00;;;;;;;;5076124;27;45851;-67
2022/07/17 14:07:19;;;;;;;;;1.75;1.75;;;;;;;;5059086;28;48420;-66
2022/07/17 14:09:44;;;;;;;;;2.00;2.00;;;;;;;;5070182;28;45429;-66
2022/07/17 14:12:09;;;;;;;;;0.75;0.75;;;;;;;;5070475;28;45495;-66
2022/07/17 14:14:35;;;;;;;;;1.00;1.00;;;;;;;;5069735;28;45813;-66
2022/07/17 14:17:00;;;;;;;;;2.00;2.00;;;;;;;;5070189;28;45965;-66
2022/07/17 14:19:25;;;;;;;;;2.00;2.00;;;;;;;;5069482;28;45442;-66
2022/07/17 14:21:50;;;;;;;;;1.00;1.00;;;;;;;;5070105;28;45481;-64
2022/07/17 14:24:16;;;;;;;;;2.00;2.00;;;;;;;;5070290;28;45668;-66
2022/07/17 14:26:45;;;;;;;;;2.50;2.50;;;;;;;;5070857;28;45595;-66
2022/07/17 14:29:10;;;;;;;;;3.00;2.00;;;;;;;;5072255;28;45511;-65
2022/07/17 14:31:35;;;;;;;;;2.00;2.00;;;;;;;;5072991;28;45493;-66